createdAt,value
2018-07-07T00:00:29.915Z,100.00
2018-07-07T00:02:58.090Z,100.00
2018-07-07T00:05:26.281Z,100.00
2018-07-07T00:07:54.538Z,100.00
2018-07-07T00:10:22.780Z,100.00
2018-07-07T00:12:50.948Z,100.00
2018-07-07T00:15:20.452Z,100.00
2018-07-07T00:17:49.233Z,100.00
2018-07-07T00:20:17.930Z,100.00
2018-07-07T00:22:47.017Z,100.00
2018-07-07T00:25:20.521Z,100.00
2018-07-07T00:27:49.405Z,100.00
2018-07-07T00:30:18.247Z,100.00
2018-07-07T00:32:46.844Z,100.00
2018-07-07T00:35:15.086Z,100.00
2018-07-07T00:37:43.272Z,100.00
2018-07-07T00:40:11.968Z,100.00
2018-07-07T00:42:40.389Z,100.00
2018-07-07T00:45:08.560Z,100.00
2018-07-07T00:47:36.887Z,100.00
2018-07-07T00:50:05.377Z,100.00
2018-07-07T00:52:33.548Z,100.00
2018-07-07T00:55:01.748Z,100.00
2018-07-07T00:57:29.915Z,100.00
2018-07-07T00:59:58.090Z,100.00
2018-07-07T01:02:26.282Z,100.00
2018-07-07T01:04:55.326Z,100.00
2018-07-07T01:07:24.076Z,100.00
2018-07-07T01:09:52.371Z,100.00
2018-07-07T01:12:20.554Z,100.00
2018-07-07T01:14:49.210Z,100.00
2018-07-07T01:17:17.501Z,100.00
2018-07-07T01:19:45.693Z,100.00
2018-07-07T01:22:14.343Z,100.00
2018-07-07T01:24:42.945Z,100.00
2018-07-07T01:27:11.169Z,100.00
2018-07-07T01:29:40.301Z,100.00
2018-07-07T01:32:08.545Z,100.00
2018-07-07T01:34:36.725Z,100.00
2018-07-07T01:37:04.953Z,100.00
2018-07-07T01:39:33.190Z,100.00
2018-07-07T01:42:01.357Z,100.00
2018-07-07T01:44:29.561Z,100.00
2018-07-07T01:46:57.787Z,100.00
2018-07-07T01:49:25.953Z,100.00
2018-07-07T01:51:54.153Z,100.00
2018-07-07T01:54:22.377Z,100.00
2018-07-07T01:56:50.545Z,100.00
2018-07-07T01:59:18.725Z,100.00
2018-07-07T02:01:46.917Z,100.00
2018-07-07T02:04:15.802Z,100.00
2018-07-07T02:06:43.963Z,100.00
2018-07-07T02:09:12.134Z,100.00
2018-07-07T02:11:40.312Z,100.00
2018-07-07T02:14:08.479Z,100.00
2018-07-07T02:16:36.654Z,100.00
2018-07-07T02:19:04.903Z,100.00
2018-07-07T02:21:33.048Z,100.00
2018-07-07T02:24:01.256Z,100.00
2018-07-07T02:26:29.442Z,100.00
2018-07-07T02:28:57.654Z,100.00
2018-07-07T02:31:25.856Z,100.00
2018-07-07T02:33:54.230Z,100.00
2018-07-07T02:36:22.401Z,100.00
2018-07-07T02:38:50.582Z,100.00
2018-07-07T02:41:18.750Z,100.00
2018-07-07T02:43:46.918Z,100.00
2018-07-07T02:46:15.215Z,100.00
2018-07-07T02:48:43.313Z,100.00
2018-07-07T02:51:11.466Z,100.00
2018-07-07T02:53:39.642Z,100.00
2018-07-07T02:56:08.118Z,100.00
2018-07-07T02:58:36.285Z,100.00
2018-07-07T03:01:04.461Z,100.00
2018-07-07T03:03:32.644Z,100.00
2018-07-07T03:06:00.809Z,100.00
2018-07-07T03:08:29.099Z,100.00
2018-07-07T03:10:57.301Z,100.00
2018-07-07T03:13:25.468Z,100.00
2018-07-07T03:15:53.729Z,100.00
2018-07-07T03:18:21.894Z,100.00
2018-07-07T03:20:50.100Z,100.00
2018-07-07T03:23:18.365Z,100.00
2018-07-07T03:25:46.647Z,100.00
2018-07-07T03:28:14.809Z,100.00
2018-07-07T03:30:42.991Z,100.00
2018-07-07T03:33:11.171Z,100.00
2018-07-07T03:35:39.346Z,100.00
2018-07-07T03:38:07.518Z,100.00
2018-07-07T03:40:35.686Z,100.00
2018-07-07T03:43:03.850Z,100.00
2018-07-07T03:45:32.134Z,100.00
2018-07-07T03:48:00.288Z,100.00
2018-07-07T03:50:28.462Z,100.00
2018-07-07T03:52:56.654Z,100.00
2018-07-07T03:55:25.086Z,100.00
2018-07-07T03:57:53.278Z,100.00
2018-07-07T04:00:21.453Z,100.00
2018-07-07T04:02:49.620Z,100.00
2018-07-07T04:05:17.807Z,100.00
2018-07-07T04:07:46.010Z,100.00
2018-07-07T04:10:14.178Z,100.00
2018-07-07T04:12:42.354Z,100.00
2018-07-07T04:15:10.549Z,100.00
2018-07-07T04:17:38.714Z,100.00
2018-07-07T04:20:06.902Z,100.00
2018-07-07T04:22:35.057Z,100.00
2018-07-07T04:25:03.231Z,100.00
2018-07-07T04:27:31.494Z,100.00
2018-07-07T04:29:59.673Z,100.00
2018-07-07T04:32:28.473Z,100.00
2018-07-07T04:34:56.655Z,100.00
2018-07-07T04:37:24.913Z,100.00
2018-07-07T04:39:53.104Z,100.00
2018-07-07T04:42:21.281Z,100.00
2018-07-07T04:44:49.485Z,100.00
2018-07-07T04:47:17.955Z,100.00
2018-07-07T04:49:46.383Z,100.00
2018-07-07T04:52:14.596Z,100.00
2018-07-07T04:54:42.766Z,100.00
2018-07-07T04:57:11.006Z,100.00
2018-07-07T04:59:39.198Z,100.00
2018-07-07T05:02:07.358Z,100.00
2018-07-07T05:04:35.661Z,100.00
2018-07-07T05:07:03.811Z,100.00
2018-07-07T05:09:31.974Z,100.00
2018-07-07T05:12:00.156Z,100.00
2018-07-07T05:14:28.617Z,100.00
2018-07-07T05:16:56.793Z,100.00
2018-07-07T05:19:24.962Z,100.00
2018-07-07T05:21:53.165Z,100.00
2018-07-07T05:24:21.631Z,100.00
2018-07-07T05:26:49.808Z,100.00
2018-07-07T05:29:17.994Z,100.00
2018-07-07T05:31:46.182Z,100.00
2018-07-07T05:34:14.317Z,100.00
2018-07-07T05:36:42.513Z,100.00
2018-07-07T05:39:10.724Z,100.00
2018-07-07T05:41:38.909Z,100.00
2018-07-07T05:44:07.122Z,100.00
2018-07-07T05:46:35.373Z,100.00
2018-07-07T05:49:03.590Z,100.00
2018-07-07T05:51:31.756Z,100.00
2018-07-07T05:54:00.293Z,100.00
2018-07-07T05:56:28.495Z,100.00
2018-07-07T05:58:56.656Z,100.00
2018-07-07T06:01:24.954Z,100.00
2018-07-07T06:03:53.138Z,100.00
2018-07-07T06:06:21.318Z,100.00
2018-07-07T06:08:49.525Z,100.00
2018-07-07T06:11:17.742Z,100.00
2018-07-07T06:13:45.930Z,100.00
2018-07-07T06:16:14.094Z,100.00
2018-07-07T06:18:42.274Z,100.00
2018-07-07T06:21:10.773Z,100.00
2018-07-07T06:23:39.249Z,100.00
2018-07-07T06:26:07.412Z,100.00
2018-07-07T06:28:35.605Z,100.00
2018-07-07T06:31:03.769Z,100.00
2018-07-07T06:33:31.953Z,100.00
2018-07-07T06:36:00.290Z,100.00
2018-07-07T06:38:28.449Z,100.00
2018-07-07T06:40:56.646Z,100.00
2018-07-07T06:43:24.859Z,100.00
2018-07-07T06:45:53.211Z,100.00
2018-07-07T06:48:21.373Z,100.00
2018-07-07T06:50:49.551Z,100.00
2018-07-07T06:53:17.726Z,100.00
2018-07-07T06:55:45.961Z,100.00
2018-07-07T06:58:14.143Z,100.00
2018-07-07T07:00:42.387Z,100.00
2018-07-07T07:03:10.643Z,100.00
2018-07-07T07:05:38.817Z,100.00
2018-07-07T07:08:07.021Z,100.00
2018-07-07T07:10:35.191Z,100.00
2018-07-07T07:13:03.362Z,99.91
2018-07-07T07:15:31.529Z,90.70
2018-07-07T07:17:59.698Z,89.50
2018-07-07T07:20:27.872Z,92.89
2018-07-07T07:22:56.745Z,87.88
2018-07-07T07:25:25.004Z,87.06
2018-07-07T07:27:53.598Z,93.64
2018-07-07T07:30:21.750Z,83.81
2018-07-07T07:32:50.218Z,89.73
2018-07-07T07:35:18.410Z,86.67
2018-07-07T07:37:46.703Z,81.88
2018-07-07T07:40:15.161Z,87.37
2018-07-07T07:42:43.344Z,86.48
2018-07-07T07:45:11.515Z,85.90
2018-07-07T07:47:39.903Z,80.34
2018-07-07T07:50:08.459Z,73.01
2018-07-07T07:52:36.713Z,75.48
2018-07-07T07:55:04.895Z,71.82
2018-07-07T07:57:33.083Z,71.16
2018-07-07T08:00:01.257Z,70.10
2018-07-07T08:02:29.542Z,69.22
2018-07-07T08:04:59.088Z,69.20
2018-07-07T08:07:27.546Z,67.05
2018-07-07T08:09:55.780Z,65.54
2018-07-07T08:12:24.110Z,61.25
2018-07-07T08:14:52.688Z,62.86
2018-07-07T08:17:20.918Z,57.64
2018-07-07T08:19:49.094Z,57.09
2018-07-07T08:22:17.511Z,55.43
2018-07-07T08:24:46.220Z,52.43
2018-07-07T08:27:15.258Z,52.23
2018-07-07T08:29:43.600Z,53.39
2018-07-07T08:32:11.794Z,49.78
2018-07-07T08:34:40.028Z,48.26
2018-07-07T08:37:08.228Z,46.42
2018-07-07T08:39:36.401Z,47.22
2018-07-07T08:42:04.624Z,47.22
2018-07-07T08:44:32.753Z,46.28
2018-07-07T08:47:00.917Z,46.73
2018-07-07T08:49:29.113Z,44.76
2018-07-07T08:51:57.354Z,44.33
2018-07-07T08:54:25.513Z,45.66
2018-07-07T08:56:53.773Z,44.29
2018-07-07T08:59:21.937Z,43.46
2018-07-07T09:01:50.099Z,45.39
2018-07-07T09:04:18.282Z,42.55
2018-07-07T09:06:46.450Z,41.55
2018-07-07T09:09:14.641Z,43.31
2018-07-07T09:11:43.115Z,39.04
2018-07-07T09:14:11.868Z,37.28
2018-07-07T09:16:40.047Z,39.14
2018-07-07T09:19:08.234Z,38.84
2018-07-07T09:21:36.406Z,39.31
2018-07-07T09:24:04.588Z,39.11
2018-07-07T09:26:32.765Z,38.97
2018-07-07T09:29:00.925Z,39.95
2018-07-07T09:31:29.854Z,38.81
2018-07-07T09:33:58.036Z,40.26
2018-07-07T09:36:26.245Z,38.08
2018-07-07T09:38:54.803Z,39.51
2018-07-07T09:41:22.905Z,41.34
2018-07-07T09:43:51.109Z,40.17
2018-07-07T09:46:19.281Z,39.61
2018-07-07T09:48:47.478Z,40.07
2018-07-07T09:51:15.725Z,39.70
2018-07-07T09:53:43.977Z,40.17
2018-07-07T09:56:12.324Z,39.22
2018-07-07T09:58:40.555Z,39.81
2018-07-07T10:01:08.733Z,38.54
2018-07-07T10:03:36.998Z,40.32
2018-07-07T10:06:05.253Z,39.54
2018-07-07T10:08:33.502Z,36.90
2018-07-07T10:11:01.719Z,40.08
2018-07-07T10:13:29.930Z,37.84
2018-07-07T10:15:58.050Z,40.51
2018-07-07T10:18:26.397Z,39.90
2018-07-07T10:20:54.679Z,38.44
2018-07-07T10:23:22.859Z,38.24
2018-07-07T10:25:51.225Z,39.28
2018-07-07T10:28:19.705Z,37.83
2018-07-07T10:30:48.275Z,37.04
2018-07-07T10:33:16.436Z,35.93
2018-07-07T10:35:44.675Z,37.83
2018-07-07T10:38:13.259Z,37.75
2018-07-07T10:40:41.591Z,38.29
2018-07-07T10:43:09.797Z,35.98
2018-07-07T10:45:37.991Z,34.46
2018-07-07T10:48:06.241Z,36.06
2018-07-07T10:50:34.689Z,37.29
2018-07-07T10:53:02.865Z,31.65
2018-07-07T10:55:31.159Z,32.54
2018-07-07T10:57:59.343Z,28.51
2018-07-07T11:00:27.509Z,29.74
2018-07-07T11:02:55.719Z,29.98
2018-07-07T11:05:24.043Z,29.73
2018-07-07T11:07:52.226Z,28.87
2018-07-07T11:10:20.433Z,29.91
2018-07-07T11:12:48.785Z,28.50
2018-07-07T11:15:16.954Z,29.77
2018-07-07T11:17:45.159Z,28.75
2018-07-07T11:20:13.335Z,26.44
2018-07-07T11:22:42.126Z,26.33
2018-07-07T11:25:10.416Z,26.87
2018-07-07T11:27:38.725Z,27.00
2018-07-07T11:30:06.909Z,26.83
2018-07-07T11:32:35.213Z,26.92
2018-07-07T11:35:03.499Z,28.36
2018-07-07T11:37:31.696Z,28.81
2018-07-07T11:40:00.016Z,29.00
2018-07-07T11:42:28.287Z,27.98
2018-07-07T11:44:56.442Z,26.23
2018-07-07T11:47:24.622Z,26.33
2018-07-07T11:49:52.801Z,25.64
2018-07-07T11:52:21.001Z,22.81
2018-07-07T11:54:49.359Z,22.42
2018-07-07T11:57:17.581Z,23.40
2018-07-07T11:59:45.749Z,20.44
2018-07-07T12:02:14.078Z,18.46
2018-07-07T12:04:49.476Z,15.47
2018-07-07T12:07:17.614Z,14.30
2018-07-07T12:09:46.093Z,16.54
2018-07-07T12:12:18.995Z,15.99
2018-07-07T12:14:50.267Z,18.91
2018-07-07T12:17:22.048Z,20.13
2018-07-07T12:19:52.007Z,19.83
2018-07-07T12:22:20.280Z,19.46
2018-07-07T12:24:48.754Z,18.99
2018-07-07T12:27:16.888Z,17.67
2018-07-07T12:29:45.085Z,15.36
2018-07-07T12:32:13.396Z,13.83
2018-07-07T12:34:41.578Z,11.92
2018-07-07T12:37:09.747Z,9.68
2018-07-07T12:39:37.923Z,9.09
2018-07-07T12:42:06.094Z,13.52
2018-07-07T12:44:34.305Z,11.21
2018-07-07T12:47:02.566Z,10.40
2018-07-07T12:49:30.789Z,10.64
2018-07-07T12:51:59.002Z,11.12
2018-07-07T12:54:27.186Z,12.03
2018-07-07T12:56:55.342Z,9.72
2018-07-07T12:59:23.494Z,9.94
2018-07-07T13:01:51.666Z,8.77
2018-07-07T13:04:19.888Z,9.31
2018-07-07T13:06:48.230Z,10.70
2018-07-07T13:09:16.445Z,7.92
2018-07-07T13:11:44.645Z,10.14
2018-07-07T13:14:12.825Z,11.01
2018-07-07T13:16:41.082Z,8.21
2018-07-07T13:19:09.541Z,8.38
2018-07-07T13:21:37.945Z,8.63
2018-07-07T13:24:07.801Z,9.61
2018-07-07T13:26:37.565Z,9.38
2018-07-07T13:29:05.757Z,10.81
2018-07-07T13:31:35.703Z,10.51
2018-07-07T13:34:05.317Z,10.17
2018-07-07T13:36:33.523Z,12.26
2018-07-07T13:39:01.763Z,9.98
2018-07-07T13:41:29.918Z,7.43
2018-07-07T13:43:58.104Z,9.45
2018-07-07T13:46:26.378Z,10.14
2018-07-07T13:48:56.326Z,9.58
2018-07-07T13:51:24.482Z,10.49
2018-07-07T13:53:52.794Z,8.29
2018-07-07T13:56:24.114Z,7.18
2018-07-07T13:58:53.314Z,6.91
2018-07-07T14:01:23.714Z,9.64
2018-07-07T14:03:51.922Z,7.50
2018-07-07T14:06:25.053Z,8.72
2018-07-07T14:08:53.327Z,8.68
2018-07-07T14:11:21.705Z,9.17
2018-07-07T14:13:49.885Z,7.56
2018-07-07T14:16:18.151Z,7.34
2018-07-07T14:18:46.305Z,9.05
2018-07-07T14:21:14.477Z,7.68
2018-07-07T14:23:42.633Z,7.36
2018-07-07T14:26:10.819Z,8.08
2018-07-07T14:28:39.077Z,11.64
2018-07-07T14:31:07.541Z,9.44
2018-07-07T14:33:35.701Z,8.34
2018-07-07T14:36:03.971Z,8.18
2018-07-07T14:38:35.568Z,10.07
2018-07-07T14:41:13.715Z,9.65
2018-07-07T14:43:48.883Z,9.36
2018-07-07T14:46:17.093Z,10.29
2018-07-07T14:48:45.301Z,8.34
2018-07-07T14:51:13.526Z,9.12
2018-07-07T14:53:41.810Z,7.92
2018-07-07T14:56:10.167Z,9.27
2018-07-07T14:58:38.350Z,9.42
2018-07-07T15:01:06.534Z,8.90
2018-07-07T15:03:34.828Z,10.53
2018-07-07T15:06:03.085Z,10.88
2018-07-07T15:08:31.673Z,11.73
2018-07-07T15:10:59.888Z,10.39
2018-07-07T15:13:28.048Z,8.93
2018-07-07T15:15:56.221Z,10.80
2018-07-07T15:18:24.453Z,11.09
2018-07-07T15:20:52.791Z,11.12
2018-07-07T15:23:21.039Z,11.61
2018-07-07T15:25:49.213Z,11.30
2018-07-07T15:28:17.453Z,12.77
2018-07-07T15:30:45.628Z,13.01
2018-07-07T15:33:13.908Z,12.50
2018-07-07T15:35:42.346Z,14.15
2018-07-07T15:38:10.571Z,13.41
2018-07-07T15:40:38.732Z,15.35
2018-07-07T15:43:07.068Z,13.82
2018-07-07T15:45:35.416Z,15.04
2018-07-07T15:48:03.583Z,12.31
2018-07-07T15:50:31.874Z,13.45
2018-07-07T15:53:00.083Z,13.26
2018-07-07T15:55:28.294Z,13.02
2018-07-07T15:57:56.560Z,14.84
2018-07-07T16:00:24.745Z,13.55
2018-07-07T16:02:53.282Z,14.17
2018-07-07T16:05:21.428Z,14.21
2018-07-07T16:07:49.682Z,14.25
2018-07-07T16:10:17.950Z,14.58
2018-07-07T16:12:46.122Z,12.44
2018-07-07T16:15:14.332Z,13.10
2018-07-07T16:17:42.592Z,14.11
2018-07-07T16:20:10.778Z,16.26
2018-07-07T16:22:39.046Z,16.03
2018-07-07T16:25:07.298Z,17.39
2018-07-07T16:27:35.474Z,17.64
2018-07-07T16:30:03.694Z,18.08
2018-07-07T16:32:32.120Z,18.94
2018-07-07T16:35:00.514Z,18.93
2018-07-07T16:37:29.111Z,20.62
2018-07-07T16:39:57.425Z,21.55
2018-07-07T16:42:25.749Z,20.71
2018-07-07T16:44:54.165Z,21.19
2018-07-07T16:47:22.355Z,20.99
2018-07-07T16:49:50.563Z,22.56
2018-07-07T16:52:18.751Z,22.75
2018-07-07T16:54:47.086Z,22.78
2018-07-07T16:57:16.792Z,22.79
2018-07-07T16:59:45.276Z,23.76
2018-07-07T17:02:13.658Z,21.87
2018-07-07T17:04:41.830Z,22.71
2018-07-07T17:07:10.039Z,22.54
2018-07-07T17:09:38.523Z,22.55
2018-07-07T17:12:06.770Z,22.97
2018-07-07T17:14:35.194Z,23.36
2018-07-07T17:17:03.448Z,23.62
2018-07-07T17:19:31.630Z,24.28
2018-07-07T17:21:59.960Z,24.83
2018-07-07T17:24:29.599Z,25.32
2018-07-07T17:26:58.501Z,23.82
2018-07-07T17:29:26.700Z,23.76
2018-07-07T17:31:54.970Z,24.70
2018-07-07T17:34:23.260Z,25.60
2018-07-07T17:36:51.743Z,25.19
2018-07-07T17:39:19.917Z,24.71
2018-07-07T17:41:48.500Z,25.14
2018-07-07T17:44:16.845Z,26.18
2018-07-07T17:46:44.993Z,26.61
2018-07-07T17:49:13.211Z,26.57
2018-07-07T17:51:41.392Z,26.02
2018-07-07T17:54:09.653Z,25.02
2018-07-07T17:56:37.827Z,25.67
2018-07-07T17:59:06.262Z,25.54
2018-07-07T18:01:35.464Z,25.09
2018-07-07T18:04:03.763Z,25.80
2018-07-07T18:06:31.905Z,26.59
2018-07-07T18:09:00.103Z,26.67
2018-07-07T18:11:28.316Z,27.16
2018-07-07T18:13:56.695Z,27.14
2018-07-07T18:16:25.169Z,27.91
2018-07-07T18:18:53.422Z,27.63
2018-07-07T18:21:21.613Z,28.17
2018-07-07T18:23:50.768Z,28.07
2018-07-07T18:26:18.912Z,28.56
2018-07-07T18:28:47.078Z,28.62
2018-07-07T18:31:15.254Z,29.05
2018-07-07T18:33:43.944Z,29.36
2018-07-07T18:36:12.126Z,29.33
2018-07-07T18:38:40.289Z,29.73
2018-07-07T18:41:08.505Z,29.71
2018-07-07T18:43:36.702Z,30.11
2018-07-07T18:46:05.392Z,30.25
2018-07-07T18:48:33.769Z,30.85
2018-07-07T18:51:02.076Z,30.99
2018-07-07T18:53:30.323Z,30.92
2018-07-07T18:55:58.513Z,31.18
2018-07-07T18:58:26.845Z,32.10
2018-07-07T19:00:55.063Z,32.29
2018-07-07T19:03:23.283Z,32.46
2018-07-07T19:05:51.522Z,32.98
2018-07-07T19:08:19.724Z,32.68
2018-07-07T19:10:48.046Z,33.08
2018-07-07T19:13:16.288Z,33.25
2018-07-07T19:15:47.622Z,33.08
2018-07-07T19:18:16.130Z,33.75
2018-07-07T19:20:49.542Z,33.86
2018-07-07T19:23:23.006Z,33.97
2018-07-07T19:25:56.647Z,35.19
2018-07-07T19:28:24.892Z,36.12
2018-07-07T19:30:53.097Z,37.56
2018-07-07T19:33:26.493Z,38.40
2018-07-07T19:36:00.019Z,39.13
2018-07-07T19:38:28.195Z,39.44
2018-07-07T19:40:56.367Z,40.05
2018-07-07T19:43:24.825Z,40.18
2018-07-07T19:45:52.993Z,40.12
2018-07-07T19:48:21.170Z,40.34
2018-07-07T19:50:49.475Z,41.04
2018-07-07T19:53:17.873Z,41.95
2018-07-07T19:55:46.096Z,43.04
2018-07-07T19:58:14.254Z,42.65
2018-07-07T20:00:42.458Z,43.17
2018-07-07T20:03:11.452Z,43.52
2018-07-07T20:05:39.754Z,44.70
2018-07-07T20:08:08.246Z,44.22
2018-07-07T20:10:36.471Z,44.07
2018-07-07T20:13:04.746Z,44.18
2018-07-07T20:15:44.342Z,43.97
2018-07-07T20:18:12.601Z,43.25
2018-07-07T20:20:46.285Z,43.50
2018-07-07T20:23:15.720Z,44.19
2018-07-07T20:25:48.114Z,45.07
2018-07-07T20:28:21.666Z,44.63
2018-07-07T20:30:49.915Z,45.19
2018-07-07T20:33:19.169Z,45.62
2018-07-07T20:35:47.391Z,47.07
2018-07-07T20:38:15.680Z,46.74
2018-07-07T20:40:43.859Z,47.51
2018-07-07T20:43:12.136Z,48.12
2018-07-07T20:45:40.505Z,49.63
2018-07-07T20:48:08.700Z,50.47
2018-07-07T20:50:36.909Z,51.40
2018-07-07T20:53:05.094Z,52.44
2018-07-07T20:55:33.283Z,53.04
2018-07-07T20:58:01.619Z,53.68
2018-07-07T21:00:29.800Z,54.15
2018-07-07T21:02:57.981Z,55.96
2018-07-07T21:05:26.210Z,56.61
2018-07-07T21:07:54.418Z,57.78
2018-07-07T21:10:22.607Z,58.04
2018-07-07T21:12:50.814Z,58.53
2018-07-07T21:15:19.025Z,59.48
2018-07-07T21:17:47.498Z,60.72
2018-07-07T21:20:15.652Z,61.84
2018-07-07T21:22:43.934Z,62.99
2018-07-07T21:25:12.114Z,63.35
2018-07-07T21:27:40.289Z,63.74
2018-07-07T21:30:08.471Z,64.30
2018-07-07T21:32:37.044Z,65.80
2018-07-07T21:35:05.208Z,65.48
2018-07-07T21:37:33.532Z,65.74
2018-07-07T21:40:01.717Z,65.36
2018-07-07T21:42:29.894Z,65.92
2018-07-07T21:44:58.429Z,67.18
2018-07-07T21:47:26.590Z,67.98
2018-07-07T21:49:54.873Z,68.74
2018-07-07T21:52:23.133Z,69.84
2018-07-07T21:54:51.334Z,70.10
2018-07-07T21:57:24.778Z,71.21
2018-07-07T21:59:52.997Z,71.45
2018-07-07T22:02:26.593Z,72.76
2018-07-07T22:05:00.566Z,74.05
2018-07-07T22:07:34.227Z,75.69
2018-07-07T22:10:02.381Z,75.71
2018-07-07T22:12:30.619Z,76.11
2018-07-07T22:14:58.815Z,76.79
2018-07-07T22:17:26.968Z,75.32
2018-07-07T22:19:55.166Z,77.44
2018-07-07T22:22:23.546Z,77.78
2018-07-07T22:24:51.802Z,81.11
2018-07-07T22:27:19.977Z,80.84
2018-07-07T22:29:50.066Z,78.65
2018-07-07T22:32:22.866Z,79.00
2018-07-07T22:34:51.334Z,80.40
2018-07-07T22:37:19.515Z,81.28
2018-07-07T22:39:47.961Z,82.11
2018-07-07T22:42:18.185Z,80.84
2018-07-07T22:44:47.483Z,80.71
2018-07-07T22:47:15.633Z,81.93
2018-07-07T22:49:43.797Z,80.72
2018-07-07T22:52:12.207Z,81.33
2018-07-07T22:54:40.498Z,85.59
2018-07-07T22:57:08.671Z,87.73
2018-07-07T22:59:36.844Z,89.27
2018-07-07T23:02:05.031Z,89.34
2018-07-07T23:04:33.210Z,87.60
2018-07-07T23:07:01.388Z,88.08
2018-07-07T23:09:29.616Z,88.09
2018-07-07T23:11:57.863Z,88.06
2018-07-07T23:14:26.147Z,90.78
2018-07-07T23:16:58.438Z,93.10
2018-07-07T23:19:27.064Z,95.22
2018-07-07T23:21:55.430Z,95.12
2018-07-07T23:24:23.592Z,97.70
2018-07-07T23:26:51.859Z,98.80
2018-07-07T23:29:20.788Z,97.73
2018-07-07T23:31:49.294Z,98.68
2018-07-07T23:34:17.502Z,99.91
2018-07-07T23:36:45.670Z,100.00
2018-07-07T23:39:13.922Z,100.00
2018-07-07T23:41:42.098Z,100.00
2018-07-07T23:44:10.362Z,100.00
2018-07-07T23:46:38.637Z,100.00
2018-07-07T23:49:06.809Z,100.00
2018-07-07T23:51:35.317Z,100.00
2018-07-07T23:54:04.247Z,100.00
2018-07-07T23:56:32.449Z,100.00
2018-07-07T23:59:00.623Z,100.00
